sensor_id;sensor_type;location;lat;lon;timestamp;pressure;altitude;pressure_sealevel;temperature;humidity
39491;BME280;25175;50.140;18.990;2024-01-25T00:00:00;98291.56;;;6.53;56.54
39491;BME280;25175;50.140;18.990;2024-01-25T00:03:06;98295.84;;;6.60;56.17
39491;BME280;25175;50.140;18.990;2024-01-25T00:06:14;98294.53;;;6.50;56.09
39491;BME280;25175;50.140;18.990;2024-01-25T00:09:28;98301.50;;;6.64;55.99
39491;BME280;25175;50.140;18.990;2024-01-25T00:12:38;98305.72;;;6.65;55.61
39491;BME280;25175;50.140;18.990;2024-01-25T00:15:45;98323.19;;;6.64;55.04
39491;BME280;25175;50.140;18.990;2024-01-25T00:18:55;98326.22;;;6.68;55.15
39491;BME280;25175;50.140;18.990;2024-01-25T00:21:59;98331.84;;;6.71;55.14
39491;BME280;25175;50.140;18.990;2024-01-25T00:25:10;98064.41;;;5.10;54.72
39491;BME280;25175;50.140;18.990;2024-01-25T00:28:20;98332.28;;;6.75;54.60
39491;BME280;25175;50.140;18.990;2024-01-25T00:31:28;98338.94;;;6.77;54.55
39491;BME280;25175;50.140;18.990;2024-01-25T00:34:44;98333.72;;;6.77;54.12
39491;BME280;25175;50.140;18.990;2024-01-25T00:37:54;98322.47;;;6.77;54.26
39491;BME280;25175;50.140;18.990;2024-01-25T00:41:00;98325.72;;;6.79;53.70
39491;BME280;25175;50.140;18.990;2024-01-25T00:44:17;98333.78;;;6.84;53.90
39491;BME280;25175;50.140;18.990;2024-01-25T00:47:23;98343.03;;;6.86;54.35
39491;BME280;25175;50.140;18.990;2024-01-25T00:50:33;98345.81;;;6.85;54.95
39491;BME280;25175;50.140;18.990;2024-01-25T00:53:42;98349.59;;;6.82;55.73
39491;BME280;25175;50.140;18.990;2024-01-25T00:56:49;98359.78;;;6.77;55.46
39491;BME280;25175;50.140;18.990;2024-01-25T00:59:59;98360.97;;;6.75;55.87
39491;BME280;25175;50.140;18.990;2024-01-25T01:03:07;98363.50;;;6.68;55.52
39491;BME280;25175;50.140;18.990;2024-01-25T01:06:13;98225.53;;;5.83;56.28
39491;BME280;25175;50.140;18.990;2024-01-25T01:09:20;98351.44;;;6.46;55.66
39491;BME280;25175;50.140;18.990;2024-01-25T01:12:27;98343.09;;;6.51;55.35
39491;BME280;25175;50.140;18.990;2024-01-25T01:15:52;98344.69;;;6.52;55.39
39491;BME280;25175;50.140;18.990;2024-01-25T01:18:57;98362.78;;;6.53;55.26
39491;BME280;25175;50.140;18.990;2024-01-25T01:22:11;98344.97;;;6.57;55.12
39491;BME280;25175;50.140;18.990;2024-01-25T01:25:19;98360.78;;;6.55;54.84
39491;BME280;25175;50.140;18.990;2024-01-25T01:28:27;98349.34;;;6.56;54.89
39491;BME280;25175;50.140;18.990;2024-01-25T01:31:38;98291.06;;;6.22;54.55
39491;BME280;25175;50.140;18.990;2024-01-25T01:34:44;98345.56;;;6.59;54.51
39491;BME280;25175;50.140;18.990;2024-01-25T01:37:55;98357.59;;;6.60;54.06
39491;BME280;25175;50.140;18.990;2024-01-25T01:41:03;98331.66;;;6.52;53.85
39491;BME280;25175;50.140;18.990;2024-01-25T01:44:11;98343.69;;;6.53;53.84
39491;BME280;25175;50.140;18.990;2024-01-25T01:47:19;98342.97;;;6.59;53.52
39491;BME280;25175;50.140;18.990;2024-01-25T01:50:29;98349.00;;;6.59;53.27
39491;BME280;25175;50.140;18.990;2024-01-25T01:53:38;98355.22;;;6.58;53.39
39491;BME280;25175;50.140;18.990;2024-01-25T01:56:50;98356.44;;;6.62;52.83
39491;BME280;25175;50.140;18.990;2024-01-25T02:00:09;98352.63;;;6.65;52.40
39491;BME280;25175;50.140;18.990;2024-01-25T02:03:22;98352.09;;;6.69;53.25
39491;BME280;25175;50.140;18.990;2024-01-25T02:06:30;98335.63;;;6.69;53.52
39491;BME280;25175;50.140;18.990;2024-01-25T02:09:37;98313.59;;;6.50;52.47
39491;BME280;25175;50.140;18.990;2024-01-25T02:12:43;98335.13;;;6.59;53.08
39491;BME280;25175;50.140;18.990;2024-01-25T02:15:50;98343.81;;;6.66;52.41
39491;BME280;25175;50.140;18.990;2024-01-25T02:19:01;98336.75;;;6.60;52.15
39491;BME280;25175;50.140;18.990;2024-01-25T02:22:19;98338.59;;;6.66;52.21
39491;BME280;25175;50.140;18.990;2024-01-25T02:25:27;98350.03;;;6.65;51.93
39491;BME280;25175;50.140;18.990;2024-01-25T02:28:39;98329.41;;;6.49;51.03
39491;BME280;25175;50.140;18.990;2024-01-25T02:31:46;98279.28;;;6.26;51.45
39491;BME280;25175;50.140;18.990;2024-01-25T02:34:50;98335.38;;;6.64;51.10
39491;BME280;25175;50.140;18.990;2024-01-25T02:38:03;98324.09;;;6.57;50.66
39491;BME280;25175;50.140;18.990;2024-01-25T02:41:18;98085.03;;;4.97;50.21
39491;BME280;25175;50.140;18.990;2024-01-25T02:44:26;98345.38;;;6.60;50.37
39491;BME280;25175;50.140;18.990;2024-01-25T02:47:42;98340.78;;;6.62;50.22
39491;BME280;25175;50.140;18.990;2024-01-25T02:50:48;98326.97;;;6.62;50.60
39491;BME280;25175;50.140;18.990;2024-01-25T02:54:00;98318.75;;;6.65;50.41
39491;BME280;25175;50.140;18.990;2024-01-25T02:57:07;98335.22;;;6.65;50.77
39491;BME280;25175;50.140;18.990;2024-01-25T03:00:16;98316.31;;;6.63;50.47
39491;BME280;25175;50.140;18.990;2024-01-25T03:03:24;98290.06;;;6.44;50.79
39491;BME280;25175;50.140;18.990;2024-01-25T03:06:34;98337.13;;;6.57;50.32
39491;BME280;25175;50.140;18.990;2024-01-25T03:09:44;98343.97;;;6.58;50.63
39491;BME280;25175;50.140;18.990;2024-01-25T03:12:50;98331.66;;;6.52;50.84
39491;BME280;25175;50.140;18.990;2024-01-25T03:16:05;98337.66;;;6.52;50.65
39491;BME280;25175;50.140;18.990;2024-01-25T03:19:11;98346.38;;;6.59;50.78
39491;BME280;25175;50.140;18.990;2024-01-25T03:22:20;98305.91;;;6.21;50.83
39491;BME280;25175;50.140;18.990;2024-01-25T03:25:34;98370.38;;;6.55;50.37
39491;BME280;25175;50.140;18.990;2024-01-25T03:28:42;98365.38;;;6.53;50.63
39491;BME280;25175;50.140;18.990;2024-01-25T03:31:50;98357.16;;;6.56;50.82
39491;BME280;25175;50.140;18.990;2024-01-25T03:35:08;98366.16;;;6.54;50.23
39491;BME280;25175;50.140;18.990;2024-01-25T03:38:18;98362.19;;;6.58;50.73
39491;BME280;25175;50.140;18.990;2024-01-25T03:41:29;98351.09;;;6.49;50.12
39491;BME280;25175;50.140;18.990;2024-01-25T03:44:37;98370.03;;;6.58;50.61
39491;BME280;25175;50.140;18.990;2024-01-25T03:47:44;98326.09;;;6.34;50.35
39491;BME280;25175;50.140;18.990;2024-01-25T03:51:05;98336.25;;;6.50;50.51
39491;BME280;25175;50.140;18.990;2024-01-25T03:54:26;98354.75;;;6.55;50.55
39491;BME280;25175;50.140;18.990;2024-01-25T03:58:00;98352.53;;;6.52;50.26
39491;BME280;25175;50.140;18.990;2024-01-25T04:01:19;98340.41;;;6.44;50.81
39491;BME280;25175;50.140;18.990;2024-01-25T04:04:26;98359.34;;;6.53;50.83
39491;BME280;25175;50.140;18.990;2024-01-25T04:07:39;98343.84;;;6.45;51.27
39491;BME280;25175;50.140;18.990;2024-01-25T04:10:44;98342.41;;;6.42;51.26
39491;BME280;25175;50.140;18.990;2024-01-25T04:13:52;98352.09;;;6.48;51.51
39491;BME280;25175;50.140;18.990;2024-01-25T04:16:59;98355.69;;;6.47;51.55
39491;BME280;25175;50.140;18.990;2024-01-25T04:20:08;98352.25;;;6.47;51.64
39491;BME280;25175;50.140;18.990;2024-01-25T04:23:14;98334.75;;;6.41;51.86
39491;BME280;25175;50.140;18.990;2024-01-25T04:26:20;98352.09;;;6.48;51.98
39491;BME280;25175;50.140;18.990;2024-01-25T04:29:28;98359.25;;;6.46;52.85
39491;BME280;25175;50.140;18.990;2024-01-25T04:32:34;98358.22;;;6.41;53.40
39491;BME280;25175;50.140;18.990;2024-01-25T04:35:38;98366.78;;;6.35;53.50
39491;BME280;25175;50.140;18.990;2024-01-25T04:38:45;98327.91;;;6.19;53.17
39491;BME280;25175;50.140;18.990;2024-01-25T04:41:50;98361.47;;;6.28;53.07
39491;BME280;25175;50.140;18.990;2024-01-25T04:44:58;98354.41;;;6.22;52.57
39491;BME280;25175;50.140;18.990;2024-01-25T04:48:07;98351.09;;;6.14;52.48
39491;BME280;25175;50.140;18.990;2024-01-25T04:51:16;98356.66;;;6.25;52.88
39491;BME280;25175;50.140;18.990;2024-01-25T04:54:24;98342.41;;;6.28;52.89
39491;BME280;25175;50.140;18.990;2024-01-25T04:57:30;98347.09;;;6.32;53.13
39491;BME280;25175;50.140;18.990;2024-01-25T05:00:37;98348.09;;;6.31;52.46
39491;BME280;25175;50.140;18.990;2024-01-25T05:03:42;98343.84;;;6.30;52.22
39491;BME280;25175;50.140;18.990;2024-01-25T05:06:47;98352.31;;;6.32;52.29
39491;BME280;25175;50.140;18.990;2024-01-25T05:09:52;98335.69;;;6.33;52.26
39491;BME280;25175;50.140;18.990;2024-01-25T05:12:57;98346.09;;;6.33;51.75
39491;BME280;25175;50.140;18.990;2024-01-25T05:16:05;98323.22;;;6.29;52.02
39491;BME280;25175;50.140;18.990;2024-01-25T05:19:10;98325.88;;;6.35;52.03
39491;BME280;25175;50.140;18.990;2024-01-25T05:22:16;98327.78;;;6.27;51.81
39491;BME280;25175;50.140;18.990;2024-01-25T05:25:23;98085.44;;;4.80;52.15
39491;BME280;25175;50.140;18.990;2024-01-25T05:28:32;98260.72;;;5.93;52.08
39491;BME280;25175;50.140;18.990;2024-01-25T05:31:40;98332.91;;;6.35;51.88
39491;BME280;25175;50.140;18.990;2024-01-25T05:34:46;98346.28;;;6.32;52.11
39491;BME280;25175;50.140;18.990;2024-01-25T05:37:51;98343.41;;;6.27;51.96
39491;BME280;25175;50.140;18.990;2024-01-25T05:40:56;98353.84;;;6.27;52.25
39491;BME280;25175;50.140;18.990;2024-01-25T05:44:01;98342.81;;;6.25;52.32
39491;BME280;25175;50.140;18.990;2024-01-25T05:47:09;98349.38;;;6.21;52.34
39491;BME280;25175;50.140;18.990;2024-01-25T05:50:16;98337.50;;;6.18;52.52
39491;BME280;25175;50.140;18.990;2024-01-25T05:53:23;98329.25;;;6.15;52.93
39491;BME280;25175;50.140;18.990;2024-01-25T05:56:30;98310.50;;;6.05;53.06
39491;BME280;25175;50.140;18.990;2024-01-25T05:59:38;98335.28;;;6.15;53.18
39491;BME280;25175;50.140;18.990;2024-01-25T06:02:46;98313.75;;;6.07;53.01
39491;BME280;25175;50.140;18.990;2024-01-25T06:05:52;98328.25;;;6.16;53.02
39491;BME280;25175;50.140;18.990;2024-01-25T06:08:57;98324.66;;;5.96;52.88
39491;BME280;25175;50.140;18.990;2024-01-25T06:12:02;98316.41;;;6.13;53.02
39491;BME280;25175;50.140;18.990;2024-01-25T06:15:09;98319.84;;;6.14;52.67
39491;BME280;25175;50.140;18.990;2024-01-25T06:18:17;98328.91;;;6.18;52.93
39491;BME280;25175;50.140;18.990;2024-01-25T06:21:22;98322.97;;;6.24;53.02
39491;BME280;25175;50.140;18.990;2024-01-25T06:24:27;98329.41;;;6.28;52.86
39491;BME280;25175;50.140;18.990;2024-01-25T06:27:33;98319.22;;;6.33;52.61
39491;BME280;25175;50.140;18.990;2024-01-25T06:30:40;98265.28;;;5.91;51.99
39491;BME280;25175;50.140;18.990;2024-01-25T06:33:47;98314.50;;;6.22;52.10
39491;BME280;25175;50.140;18.990;2024-01-25T06:36:55;98340.81;;;6.27;51.88
39491;BME280;25175;50.140;18.990;2024-01-25T06:39:59;98341.63;;;6.27;52.06
39491;BME280;25175;50.140;18.990;2024-01-25T06:43:09;98334.16;;;6.03;52.35
39491;BME280;25175;50.140;18.990;2024-01-25T06:46:14;98334.59;;;6.28;52.03
39491;BME280;25175;50.140;18.990;2024-01-25T06:49:22;98338.41;;;6.25;52.53
39491;BME280;25175;50.140;18.990;2024-01-25T06:52:27;98342.81;;;6.25;52.39
39491;BME280;25175;50.140;18.990;2024-01-25T06:55:32;98360.34;;;6.16;52.08
39491;BME280;25175;50.140;18.990;2024-01-25T06:58:37;98336.72;;;6.18;52.65
39491;BME280;25175;50.140;18.990;2024-01-25T07:01:45;98340.06;;;6.12;52.51
39491;BME280;25175;50.140;18.990;2024-01-25T07:04:52;98341.69;;;6.13;53.13
39491;BME280;25175;50.140;18.990;2024-01-25T07:07:57;98357.31;;;6.13;53.68
39491;BME280;25175;50.140;18.990;2024-01-25T07:11:02;98364.69;;;6.09;53.65
39491;BME280;25175;50.140;18.990;2024-01-25T07:14:08;98363.69;;;6.10;54.06
39491;BME280;25175;50.140;18.990;2024-01-25T07:17:12;98371.06;;;6.07;54.35
39491;BME280;25175;50.140;18.990;2024-01-25T07:20:20;98369.97;;;6.01;54.03
39491;BME280;25175;50.140;18.990;2024-01-25T07:23:28;98379.34;;;5.96;53.84
39491;BME280;25175;50.140;18.990;2024-01-25T07:26:34;98377.69;;;5.95;54.94
39491;BME280;25175;50.140;18.990;2024-01-25T07:29:38;98382.00;;;5.88;54.99
39491;BME280;25175;50.140;18.990;2024-01-25T07:32:44;98391.63;;;5.87;55.32
39491;BME280;25175;50.140;18.990;2024-01-25T07:35:54;98393.16;;;5.82;55.83
39491;BME280;25175;50.140;18.990;2024-01-25T07:39:00;98380.84;;;5.76;55.75
39491;BME280;25175;50.140;18.990;2024-01-25T07:42:05;98031.25;;;3.45;55.76
39491;BME280;25175;50.140;18.990;2024-01-25T07:45:11;98403.84;;;5.72;56.62
39491;BME280;25175;50.140;18.990;2024-01-25T07:48:17;98403.03;;;5.72;56.40
39491;BME280;25175;50.140;18.990;2024-01-25T07:51:25;98416.31;;;5.77;56.59
39491;BME280;25175;50.140;18.990;2024-01-25T07:54:31;98411.94;;;5.77;56.40
39491;BME280;25175;50.140;18.990;2024-01-25T07:57:39;98405.91;;;5.77;55.99
39491;BME280;25175;50.140;18.990;2024-01-25T08:00:44;98412.91;;;5.76;55.95
39491;BME280;25175;50.140;18.990;2024-01-25T08:03:50;98406.72;;;5.77;56.38
39491;BME280;25175;50.140;18.990;2024-01-25T08:06:58;98396.91;;;5.65;56.03
39491;BME280;25175;50.140;18.990;2024-01-25T08:10:04;98417.31;;;5.76;55.99
39491;BME280;25175;50.140;18.990;2024-01-25T08:13:10;98420.28;;;5.73;56.21
39491;BME280;25175;50.140;18.990;2024-01-25T08:16:15;98400.16;;;5.67;56.67
39491;BME280;25175;50.140;18.990;2024-01-25T08:19:22;98410.75;;;5.65;56.23
39491;BME280;25175;50.140;18.990;2024-01-25T08:22:30;98194.63;;;4.43;55.85
39491;BME280;25175;50.140;18.990;2024-01-25T08:25:35;98413.88;;;5.75;55.93
39491;BME280;25175;50.140;18.990;2024-01-25T08:28:41;98429.16;;;5.78;55.97
39491;BME280;25175;50.140;18.990;2024-01-25T08:31:46;98434.81;;;5.82;56.21
39491;BME280;25175;50.140;18.990;2024-01-25T08:34:52;98421.97;;;5.80;56.21
39491;BME280;25175;50.140;18.990;2024-01-25T08:38:00;98418.13;;;5.76;55.73
39491;BME280;25175;50.140;18.990;2024-01-25T08:41:05;98429.97;;;5.79;56.52
39491;BME280;25175;50.140;18.990;2024-01-25T08:44:12;98435.63;;;5.82;55.73
39491;BME280;25175;50.140;18.990;2024-01-25T08:47:18;98407.47;;;5.49;55.93
39491;BME280;25175;50.140;18.990;2024-01-25T08:50:25;98395.31;;;5.78;55.64
39491;BME280;25175;50.140;18.990;2024-01-25T08:53:33;98119.91;;;3.93;54.97
39491;BME280;25175;50.140;18.990;2024-01-25T08:56:38;98401.25;;;5.72;54.83
39491;BME280;25175;50.140;18.990;2024-01-25T08:59:43;98416.47;;;5.75;54.60
39491;BME280;25175;50.140;18.990;2024-01-25T09:02:47;98424.50;;;5.88;54.72
39491;BME280;25175;50.140;18.990;2024-01-25T09:05:53;98427.91;;;5.89;54.33
39491;BME280;25175;50.140;18.990;2024-01-25T09:09:00;98427.09;;;5.88;54.54
39491;BME280;25175;50.140;18.990;2024-01-25T09:12:06;98421.53;;;5.91;54.25
39491;BME280;25175;50.140;18.990;2024-01-25T09:15:13;98427.53;;;5.92;53.62
39491;BME280;25175;50.140;18.990;2024-01-25T09:18:18;98423.22;;;5.84;53.43
39491;BME280;25175;50.140;18.990;2024-01-25T09:21:24;98443.63;;;5.95;53.89
39491;BME280;25175;50.140;18.990;2024-01-25T09:24:34;98442.34;;;5.91;52.94
39491;BME280;25175;50.140;18.990;2024-01-25T09:27:41;98454.03;;;5.95;53.21
39491;BME280;25175;50.140;18.990;2024-01-25T09:30:49;98047.44;;;3.47;53.55
39491;BME280;25175;50.140;18.990;2024-01-25T09:33:54;98434.53;;;5.91;54.04
39491;BME280;25175;50.140;18.990;2024-01-25T09:36:59;98452.69;;;5.99;54.37
39491;BME280;25175;50.140;18.990;2024-01-25T09:40:07;98464.56;;;6.02;54.33
39491;BME280;25175;50.140;18.990;2024-01-25T09:43:14;98384.59;;;5.59;54.03
39491;BME280;25175;50.140;18.990;2024-01-25T09:46:19;98461.78;;;6.03;54.04
39491;BME280;25175;50.140;18.990;2024-01-25T09:49:24;98437.69;;;5.87;53.67
39491;BME280;25175;50.140;18.990;2024-01-25T09:52:29;98438.97;;;5.91;54.74
39491;BME280;25175;50.140;18.990;2024-01-25T09:55:42;98456.09;;;6.00;54.63
39491;BME280;25175;50.140;18.990;2024-01-25T09:58:55;98457.47;;;5.96;54.87
39491;BME280;25175;50.140;18.990;2024-01-25T10:02:01;98451.44;;;5.95;54.22
39491;BME280;25175;50.140;18.990;2024-01-25T10:05:08;98453.84;;;5.97;54.69
39491;BME280;25175;50.140;18.990;2024-01-25T10:08:15;98441.00;;;5.95;53.33
39491;BME280;25175;50.140;18.990;2024-01-25T10:11:24;98449.28;;;5.84;52.91
39491;BME280;25175;50.140;18.990;2024-01-25T10:14:31;98456.81;;;5.94;53.14
39491;BME280;25175;50.140;18.990;2024-01-25T10:17:36;98468.66;;;5.96;53.01
39491;BME280;25175;50.140;18.990;2024-01-25T10:20:42;98452.53;;;6.01;53.12
39491;BME280;25175;50.140;18.990;2024-01-25T10:23:50;98464.63;;;6.08;53.25
39491;BME280;25175;50.140;18.990;2024-01-25T10:26:59;98457.63;;;6.09;52.63
39491;BME280;25175;50.140;18.990;2024-01-25T10:30:07;98474.16;;;6.16;52.58
39491;BME280;25175;50.140;18.990;2024-01-25T10:33:16;98483.06;;;6.21;52.63
39491;BME280;25175;50.140;18.990;2024-01-25T10:36:23;98483.50;;;6.25;52.17
39491;BME280;25175;50.140;18.990;2024-01-25T10:39:32;98446.03;;;6.11;51.67
39491;BME280;25175;50.140;18.990;2024-01-25T10:42:41;98479.91;;;6.26;51.88
39491;BME280;25175;50.140;18.990;2024-01-25T10:45:48;98452.06;;;6.12;51.79
39491;BME280;25175;50.140;18.990;2024-01-25T10:48:58;98428.97;;;6.09;52.36
39491;BME280;25175;50.140;18.990;2024-01-25T10:52:05;98471.72;;;6.29;51.73
39491;BME280;25175;50.140;18.990;2024-01-25T10:55:12;98458.44;;;6.24;51.71
39491;BME280;25175;50.140;18.990;2024-01-25T10:58:25;98487.38;;;6.29;52.06
39491;BME280;25175;50.140;18.990;2024-01-25T11:01:44;98483.50;;;6.25;51.93
39491;BME280;25175;50.140;18.990;2024-01-25T11:04:53;98477.75;;;6.15;52.25
39491;BME280;25175;50.140;18.990;2024-01-25T11:08:03;98479.81;;;6.19;52.11
39491;BME280;25175;50.140;18.990;2024-01-25T11:11:11;98478.63;;;6.22;52.11
39491;BME280;25175;50.140;18.990;2024-01-25T11:14:20;98474.78;;;6.18;51.81
39491;BME280;25175;50.140;18.990;2024-01-25T11:17:28;98464.00;;;6.06;51.94
39491;BME280;25175;50.140;18.990;2024-01-25T11:20:39;98470.03;;;6.07;51.70
39491;BME280;25175;50.140;18.990;2024-01-25T11:23:47;98488.16;;;6.15;51.68
39491;BME280;25175;50.140;18.990;2024-01-25T11:26:54;98487.81;;;6.18;51.50
39491;BME280;25175;50.140;18.990;2024-01-25T11:30:08;98480.78;;;6.18;51.41
39491;BME280;25175;50.140;18.990;2024-01-25T11:33:14;98488.72;;;6.25;51.51
39491;BME280;25175;50.140;18.990;2024-01-25T11:36:21;98484.56;;;6.16;51.02
39491;BME280;25175;50.140;18.990;2024-01-25T11:39:27;98432.09;;;5.75;51.00
39491;BME280;25175;50.140;18.990;2024-01-25T11:42:32;98505.97;;;6.26;51.02
39491;BME280;25175;50.140;18.990;2024-01-25T11:45:39;98503.19;;;6.27;51.05
39491;BME280;25175;50.140;18.990;2024-01-25T11:48:45;98514.38;;;6.28;51.01
39491;BME280;25175;50.140;18.990;2024-01-25T11:51:51;98496.97;;;6.14;50.91
39491;BME280;25175;50.140;18.990;2024-01-25T11:54:56;98522.13;;;6.21;51.78
39491;BME280;25175;50.140;18.990;2024-01-25T11:58:03;98530.28;;;6.18;51.84
39491;BME280;25175;50.140;18.990;2024-01-25T12:01:15;98532.91;;;6.18;52.35
39491;BME280;25175;50.140;18.990;2024-01-25T12:04:21;98538.28;;;6.17;52.42
39491;BME280;25175;50.140;18.990;2024-01-25T12:07:29;98286.41;;;4.58;52.63
39491;BME280;25175;50.140;18.990;2024-01-25T12:10:34;98522.75;;;6.09;53.08
39491;BME280;25175;50.140;18.990;2024-01-25T12:13:41;98565.97;;;6.18;52.95
39491;BME280;25175;50.140;18.990;2024-01-25T12:16:49;98543.69;;;6.15;54.22
39491;BME280;25175;50.140;18.990;2024-01-25T12:19:55;98557.34;;;6.17;54.12
39491;BME280;25175;50.140;18.990;2024-01-25T12:23:02;98549.69;;;6.16;54.34
39491;BME280;25175;50.140;18.990;2024-01-25T12:26:10;98546.47;;;5.99;54.14
39491;BME280;25175;50.140;18.990;2024-01-25T12:29:15;98553.66;;;6.12;54.26
39491;BME280;25175;50.140;18.990;2024-01-25T12:32:23;98561.38;;;6.05;53.88
39491;BME280;25175;50.140;18.990;2024-01-25T12:35:28;98240.72;;;3.96;53.75
39491;BME280;25175;50.140;18.990;2024-01-25T12:38:36;98566.31;;;6.00;53.75
39491;BME280;25175;50.140;18.990;2024-01-25T12:41:41;98563.34;;;6.03;54.01
39491;BME280;25175;50.140;18.990;2024-01-25T12:44:47;98548.69;;;6.02;53.86
39491;BME280;25175;50.140;18.990;2024-01-25T12:47:57;98521.28;;;5.77;54.12
39491;BME280;25175;50.140;18.990;2024-01-25T12:51:05;98555.72;;;6.02;54.34
39491;BME280;25175;50.140;18.990;2024-01-25T12:54:12;98542.25;;;5.98;54.08
39491;BME280;25175;50.140;18.990;2024-01-25T12:57:17;98316.00;;;4.49;53.84
39491;BME280;25175;50.140;18.990;2024-01-25T13:00:22;98557.94;;;6.05;53.94
39491;BME280;25175;50.140;18.990;2024-01-25T13:03:30;98560.09;;;6.01;53.73
39491;BME280;25175;50.140;18.990;2024-01-25T13:06:36;98563.72;;;5.78;54.06
39491;BME280;25175;50.140;18.990;2024-01-25T13:09:42;98556.06;;;5.99;54.38
39491;BME280;25175;50.140;18.990;2024-01-25T13:12:47;98282.06;;;4.28;54.35
39491;BME280;25175;50.140;18.990;2024-01-25T13:15:53;98562.69;;;6.01;54.17
39491;BME280;25175;50.140;18.990;2024-01-25T13:19:00;98534.75;;;5.95;54.02
39491;BME280;25175;50.140;18.990;2024-01-25T13:22:05;98571.69;;;5.99;54.32
39491;BME280;25175;50.140;18.990;2024-01-25T13:25:12;98578.16;;;6.03;54.01
39491;BME280;25175;50.140;18.990;2024-01-25T13:28:18;98565.59;;;6.06;53.77
39491;BME280;25175;50.140;18.990;2024-01-25T13:31:23;98566.75;;;6.04;53.83
39491;BME280;25175;50.140;18.990;2024-01-25T13:34:31;98569.00;;;6.07;54.20
39491;BME280;25175;50.140;18.990;2024-01-25T13:37:36;98588.22;;;6.06;54.12
39491;BME280;25175;50.140;18.990;2024-01-25T13:40:42;98527.34;;;5.70;54.21
39491;BME280;25175;50.140;18.990;2024-01-25T13:43:49;98581.50;;;6.11;54.20
39491;BME280;25175;50.140;18.990;2024-01-25T13:46:54;98587.25;;;6.07;54.02
39491;BME280;25175;50.140;18.990;2024-01-25T13:50:03;98596.03;;;6.06;54.17
39491;BME280;25175;50.140;18.990;2024-01-25T13:53:10;98589.91;;;5.99;54.18
39491;BME280;25175;50.140;18.990;2024-01-25T13:56:14;98586.03;;;5.95;53.96
39491;BME280;25175;50.140;18.990;2024-01-25T13:59:20;98608.13;;;5.99;54.08
39491;BME280;25175;50.140;18.990;2024-01-25T14:02:26;98594.94;;;6.00;54.08
39491;BME280;25175;50.140;18.990;2024-01-25T14:05:34;98601.78;;;6.01;54.22
39491;BME280;25175;50.140;18.990;2024-01-25T14:08:39;98611.03;;;6.04;53.83
39491;BME280;25175;50.140;18.990;2024-01-25T14:11:44;98607.88;;;6.08;54.06
39491;BME280;25175;50.140;18.990;2024-01-25T14:14:49;98616.00;;;6.13;53.54
39491;BME280;25175;50.140;18.990;2024-01-25T14:17:56;98616.63;;;6.15;53.66
39491;BME280;25175;50.140;18.990;2024-01-25T14:21:03;98616.63;;;6.15;52.99
39491;BME280;25175;50.140;18.990;2024-01-25T14:24:11;98548.19;;;5.70;53.35
39491;BME280;25175;50.140;18.990;2024-01-25T14:27:17;98625.16;;;6.09;52.91
39491;BME280;25175;50.140;18.990;2024-01-25T14:30:22;98611.31;;;6.09;52.35
39491;BME280;25175;50.140;18.990;2024-01-25T14:33:27;98357.75;;;4.47;52.46
39491;BME280;25175;50.140;18.990;2024-01-25T14:36:35;98603.91;;;5.98;52.58
39491;BME280;25175;50.140;18.990;2024-01-25T14:39:42;98620.66;;;6.03;52.16
39491;BME280;25175;50.140;18.990;2024-01-25T14:42:47;98621.09;;;6.07;51.83
39491;BME280;25175;50.140;18.990;2024-01-25T14:45:52;98626.31;;;6.07;51.86
39491;BME280;25175;50.140;18.990;2024-01-25T14:49:00;98634.13;;;6.07;51.62
39491;BME280;25175;50.140;18.990;2024-01-25T14:52:09;98543.22;;;5.52;51.50
39491;BME280;25175;50.140;18.990;2024-01-25T14:55:14;98678.88;;;6.10;51.70
39491;BME280;25175;50.140;18.990;2024-01-25T14:58:20;98655.75;;;6.07;51.47
39491;BME280;25175;50.140;18.990;2024-01-25T15:01:27;98650.25;;;6.02;51.55
39491;BME280;25175;50.140;18.990;2024-01-25T15:04:32;98640.31;;;6.06;51.97
39491;BME280;25175;50.140;18.990;2024-01-25T15:07:41;98654.59;;;6.10;51.52
39491;BME280;25175;50.140;18.990;2024-01-25T15:10:46;98665.72;;;6.04;51.29
39491;BME280;25175;50.140;18.990;2024-01-25T15:13:52;98634.72;;;5.94;51.66
39491;BME280;25175;50.140;18.990;2024-01-25T15:16:56;98650.94;;;6.04;51.45
39491;BME280;25175;50.140;18.990;2024-01-25T15:20:02;98618.34;;;5.86;51.37
39491;BME280;25175;50.140;18.990;2024-01-25T15:23:09;98648.03;;;5.99;51.69
39491;BME280;25175;50.140;18.990;2024-01-25T15:26:15;98651.44;;;6.00;51.63
39491;BME280;25175;50.140;18.990;2024-01-25T15:29:20;98424.91;;;4.58;51.01
39491;BME280;25175;50.140;18.990;2024-01-25T15:32:25;98660.31;;;5.91;51.27
39491;BME280;25175;50.140;18.990;2024-01-25T15:35:32;98668.13;;;5.91;51.21
39491;BME280;25175;50.140;18.990;2024-01-25T15:38:40;98664.53;;;5.92;50.93
39491;BME280;25175;50.140;18.990;2024-01-25T15:41:45;98409.16;;;4.29;50.70
39491;BME280;25175;50.140;18.990;2024-01-25T15:44:52;98699.66;;;5.96;51.22
39491;BME280;25175;50.140;18.990;2024-01-25T15:47:59;98688.13;;;5.90;51.32
39491;BME280;25175;50.140;18.990;2024-01-25T15:51:07;98690.09;;;5.88;51.49
39491;BME280;25175;50.140;18.990;2024-01-25T15:54:14;98700.84;;;5.85;51.75
39491;BME280;25175;50.140;18.990;2024-01-25T15:57:19;98705.59;;;5.82;51.38
39491;BME280;25175;50.140;18.990;2024-01-25T16:00:24;98708.03;;;5.83;51.85
39491;BME280;25175;50.140;18.990;2024-01-25T16:03:30;98698.25;;;5.85;51.86
39491;BME280;25175;50.140;18.990;2024-01-25T16:06:35;98704.13;;;5.87;51.83
39491;BME280;25175;50.140;18.990;2024-01-25T16:09:43;98711.56;;;5.90;51.86
39491;BME280;25175;50.140;18.990;2024-01-25T16:12:47;98657.50;;;5.39;51.79
39491;BME280;25175;50.140;18.990;2024-01-25T16:15:53;98723.28;;;5.86;51.84
39491;BME280;25175;50.140;18.990;2024-01-25T16:18:59;98714.22;;;5.82;51.97
39491;BME280;25175;50.140;18.990;2024-01-25T16:22:04;98740.28;;;5.82;51.92
39491;BME280;25175;50.140;18.990;2024-01-25T16:25:12;98725.50;;;5.75;52.24
39491;BME280;25175;50.140;18.990;2024-01-25T16:28:18;98738.47;;;5.83;52.30
39491;BME280;25175;50.140;18.990;2024-01-25T16:31:22;98742.75;;;5.76;52.52